createdAt,value
2023-09-16T00:02:13.206Z,12.52
2023-09-16T00:07:16.057Z,12.51
2023-09-16T00:12:18.572Z,12.55
2023-09-16T00:17:21.189Z,12.61
2023-09-16T00:22:23.782Z,12.64
2023-09-16T00:27:27.637Z,12.73
2023-09-16T00:32:30.265Z,12.78
2023-09-16T00:37:33.132Z,12.82
2023-09-16T00:42:39.819Z,12.86
2023-09-16T00:47:43.537Z,12.89
2023-09-16T00:52:54.190Z,12.90
2023-09-16T00:57:59.719Z,12.98
2023-09-16T01:08:24.174Z,13.13
2023-09-16T01:13:27.256Z,13.12
2023-09-16T01:18:36.551Z,13.16
2023-09-16T01:23:39.608Z,13.18
2023-09-16T01:28:42.043Z,13.21
2023-09-16T01:33:53.124Z,13.23
2023-09-16T01:39:02.060Z,13.22
2023-09-16T01:44:05.777Z,13.13
2023-09-16T01:49:08.334Z,13.01
2023-09-16T01:54:12.085Z,12.95
2023-09-16T01:59:14.754Z,12.91
2023-09-16T02:04:18.321Z,12.82
2023-09-16T02:09:21.724Z,12.67
2023-09-16T02:14:25.026Z,12.70
2023-09-16T02:19:28.448Z,12.69
2023-09-16T02:24:32.395Z,12.68
2023-09-16T02:29:35.624Z,12.60
2023-09-16T02:34:38.240Z,12.64
2023-09-16T02:39:41.036Z,12.64
2023-09-16T02:44:43.874Z,12.49
2023-09-16T02:49:46.487Z,12.52
2023-09-16T02:54:49.055Z,12.48
2023-09-16T02:59:53.525Z,12.56
2023-09-16T03:04:58.019Z,12.80
2023-09-16T03:10:01.386Z,12.93
2023-09-16T03:15:06.530Z,13.04
2023-09-16T03:20:09.621Z,13.30
2023-09-16T03:25:12.621Z,13.66
2023-09-16T03:30:19.200Z,13.83
2023-09-16T03:35:26.192Z,14.02
2023-09-16T03:40:29.545Z,14.04
2023-09-16T03:45:32.262Z,14.12
2023-09-16T03:50:37.559Z,14.06
2023-09-16T03:55:40.390Z,14.04
2023-09-16T04:00:43.081Z,14.36
2023-09-16T04:05:45.670Z,14.72
2023-09-16T04:10:49.509Z,15.10
2023-09-16T04:15:52.395Z,15.67
2023-09-16T04:20:56.921Z,16.11
2023-09-16T04:26:01.922Z,16.28
2023-09-16T04:31:05.963Z,16.05
2023-09-16T04:36:12.135Z,16.08
2023-09-16T04:41:15.485Z,16.49
2023-09-16T04:46:19.912Z,16.78
2023-09-16T04:51:23.288Z,17.96
2023-09-16T04:56:25.986Z,18.84
2023-09-16T05:01:33.152Z,19.87
2023-09-16T05:06:35.811Z,19.94
2023-09-16T05:11:38.737Z,20.81
2023-09-16T05:16:41.324Z,22.84
2023-09-16T05:21:45.321Z,22.63
2023-09-16T05:26:48.750Z,21.61
2023-09-16T05:31:51.492Z,22.51
2023-09-16T05:36:54.313Z,22.75
2023-09-16T05:41:56.837Z,23.59
2023-09-16T05:47:02.016Z,24.60
2023-09-16T05:52:06.392Z,25.43
2023-09-16T05:57:08.915Z,26.54
2023-09-16T06:02:12.115Z,27.67
2023-09-16T06:07:14.826Z,27.02
2023-09-16T06:12:17.474Z,26.89
2023-09-16T06:17:21.015Z,28.66
2023-09-16T06:22:25.127Z,28.52
2023-09-16T06:27:27.780Z,28.03
2023-09-16T06:32:30.817Z,29.18
2023-09-16T06:37:33.526Z,29.69
2023-09-16T06:42:36.599Z,30.04
2023-09-16T06:47:39.145Z,29.25
2023-09-16T06:52:41.633Z,29.95
2023-09-16T06:57:45.242Z,30.43
2023-09-16T07:02:47.737Z,31.82
2023-09-16T07:07:50.248Z,31.97
2023-09-16T07:12:52.879Z,30.33
2023-09-16T07:17:55.360Z,28.98
2023-09-16T07:22:58.482Z,29.47
2023-09-16T07:28:02.387Z,28.12
2023-09-16T07:33:05.104Z,28.66
2023-09-16T07:38:07.925Z,30.23
2023-09-16T07:43:12.655Z,30.33
2023-09-16T07:48:16.151Z,30.83
2023-09-16T07:53:19.058Z,30.34
2023-09-16T07:58:21.647Z,30.14
2023-09-16T08:03:24.409Z,29.59
2023-09-16T08:08:27.037Z,28.88
2023-09-16T08:13:29.548Z,27.56
2023-09-16T08:18:31.990Z,27.62
2023-09-16T08:23:34.557Z,27.38
2023-09-16T08:28:39.825Z,27.00
2023-09-16T08:33:42.402Z,27.15
2023-09-16T08:38:45.056Z,26.83
2023-09-16T08:43:49.446Z,27.78
2023-09-16T08:48:56.883Z,28.51
2023-09-16T08:54:02.177Z,30.52
2023-09-16T08:59:04.803Z,30.33
2023-09-16T09:04:07.693Z,29.93
2023-09-16T09:09:10.383Z,30.04
2023-09-16T09:14:13.954Z,28.52
2023-09-16T09:19:17.006Z,28.08
2023-09-16T09:24:19.353Z,28.42
2023-09-16T09:29:23.478Z,27.94
2023-09-16T09:34:30.049Z,27.36
2023-09-16T09:39:32.869Z,26.99
2023-09-16T09:44:35.963Z,27.00
2023-09-16T09:49:38.538Z,27.63
2023-09-16T09:54:41.468Z,28.34
2023-09-16T09:59:44.041Z,29.43
2023-09-16T10:04:48.553Z,30.44
2023-09-16T10:09:52.032Z,31.55
2023-09-16T10:14:54.997Z,32.38
2023-09-16T10:19:57.570Z,31.99
2023-09-16T10:25:00.820Z,32.15
2023-09-16T10:30:04.333Z,30.94
2023-09-16T10:35:08.168Z,28.49
2023-09-16T10:40:12.111Z,26.97
2023-09-16T10:45:17.196Z,28.42
2023-09-16T10:50:22.881Z,28.23
2023-09-16T10:55:25.776Z,27.55
2023-09-16T11:00:32.821Z,26.98
2023-09-16T11:05:37.981Z,26.27
2023-09-16T11:10:42.106Z,26.10
2023-09-16T11:15:48.074Z,25.63
2023-09-16T11:20:52.173Z,25.13
2023-09-16T11:25:57.932Z,24.99
2023-09-16T11:31:03.555Z,25.21
2023-09-16T11:36:17.115Z,25.74
2023-09-16T11:41:20.086Z,25.62
2023-09-16T11:46:22.831Z,25.32
2023-09-16T11:51:27.077Z,25.02
2023-09-16T11:56:32.622Z,24.43
2023-09-16T12:01:38.119Z,23.97
2023-09-16T12:06:40.964Z,23.92
2023-09-16T12:11:45.165Z,23.79
2023-09-16T12:16:48.578Z,23.80
2023-09-16T12:21:51.646Z,23.88
2023-09-16T12:26:54.318Z,23.85
2023-09-16T12:32:12.154Z,23.88
2023-09-16T12:37:17.431Z,23.90
2023-09-16T12:42:20.071Z,23.84
2023-09-16T12:47:23.121Z,23.83
2023-09-16T12:52:25.983Z,23.71
2023-09-16T12:57:28.518Z,23.57
2023-09-16T13:02:37.053Z,23.36
2023-09-16T13:07:39.968Z,23.26
2023-09-16T13:12:45.606Z,22.99
2023-09-16T13:17:59.418Z,22.58
2023-09-16T13:23:01.935Z,22.16
2023-09-16T13:28:11.179Z,22.06
2023-09-16T13:33:14.108Z,21.91
2023-09-16T13:38:16.636Z,21.75
2023-09-16T13:43:19.772Z,21.64
2023-09-16T13:48:25.000Z,21.56
2023-09-16T13:53:28.173Z,21.52
2023-09-16T13:58:30.772Z,21.46
2023-09-16T14:03:33.840Z,21.41
2023-09-16T14:08:36.606Z,21.38
2023-09-16T14:13:39.469Z,21.34
2023-09-16T14:18:41.998Z,21.23
2023-09-16T14:23:44.479Z,21.07
2023-09-16T14:28:46.999Z,21.00
2023-09-16T14:33:49.497Z,20.90
2023-09-16T14:38:54.135Z,20.81
2023-09-16T14:43:56.758Z,20.71
2023-09-16T14:48:59.303Z,20.58
2023-09-16T14:54:04.092Z,20.48
2023-09-16T14:59:06.719Z,20.36
2023-09-16T15:04:09.275Z,20.30
2023-09-16T15:09:11.799Z,20.22
2023-09-16T15:14:15.028Z,20.12
2023-09-16T15:19:17.822Z,20.06
2023-09-16T15:24:20.377Z,19.97
2023-09-16T15:29:23.155Z,19.87
2023-09-16T15:34:25.747Z,19.74
2023-09-16T15:39:28.286Z,19.57
2023-09-16T15:44:30.768Z,19.46
2023-09-16T15:49:35.587Z,19.28
2023-09-16T15:54:38.204Z,19.19
2023-09-16T15:59:40.740Z,19.13
2023-09-16T16:04:43.301Z,19.08
2023-09-16T16:09:52.161Z,19.00
2023-09-16T16:14:54.751Z,19.01
2023-09-16T16:19:57.536Z,19.03
2023-09-16T16:25:00.196Z,18.99
2023-09-16T16:30:07.176Z,18.94
2023-09-16T16:35:09.928Z,18.96
2023-09-16T16:40:12.718Z,19.00
2023-09-16T16:45:15.744Z,19.06
2023-09-16T16:50:18.403Z,19.08
2023-09-16T16:55:20.921Z,19.04
2023-09-16T17:00:23.487Z,18.98
2023-09-16T17:05:27.438Z,18.89
2023-09-16T17:10:30.862Z,18.81
2023-09-16T17:15:33.488Z,18.77
2023-09-16T17:20:36.316Z,18.71
2023-09-16T17:25:39.867Z,18.61
2023-09-16T17:30:43.665Z,18.52
2023-09-16T17:35:48.067Z,18.42
2023-09-16T17:40:50.602Z,18.35
2023-09-16T17:45:53.199Z,18.27
2023-09-16T17:50:57.165Z,18.16
2023-09-16T17:56:01.256Z,18.01
2023-09-16T18:01:05.721Z,17.80
2023-09-16T18:06:08.538Z,17.70
2023-09-16T18:11:11.024Z,17.55
2023-09-16T18:16:13.716Z,17.41
2023-09-16T18:21:16.322Z,17.33
2023-09-16T18:26:19.742Z,17.27
2023-09-16T18:31:23.267Z,17.16
2023-09-16T18:36:26.023Z,17.12
2023-09-16T18:41:29.418Z,17.06
2023-09-16T18:46:33.846Z,16.98
2023-09-16T18:51:36.529Z,16.91
2023-09-16T18:56:39.056Z,16.94
2023-09-16T19:01:41.639Z,16.93
2023-09-16T19:06:44.566Z,16.87
2023-09-16T19:11:48.447Z,16.82
2023-09-16T19:16:51.166Z,16.74
2023-09-16T19:21:53.765Z,16.78
2023-09-16T19:26:56.211Z,16.77
2023-09-16T19:32:00.855Z,16.76
2023-09-16T19:37:03.701Z,16.72
2023-09-16T19:42:06.952Z,16.69
2023-09-16T19:47:09.611Z,16.66
2023-09-16T19:52:12.238Z,16.60
2023-09-16T19:57:14.785Z,16.48
2023-09-16T20:02:17.442Z,16.35
2023-09-16T20:07:20.401Z,16.25
2023-09-16T20:12:22.953Z,16.13
2023-09-16T20:17:25.675Z,16.07
2023-09-16T20:22:28.194Z,15.97
2023-09-16T20:27:31.158Z,15.86
2023-09-16T20:32:33.776Z,15.71
2023-09-16T20:37:38.086Z,15.63
2023-09-16T20:42:40.924Z,15.53
2023-09-16T20:47:43.450Z,15.43
2023-09-16T20:52:45.923Z,15.33
2023-09-16T20:57:48.337Z,15.22
2023-09-16T21:02:51.011Z,15.15
2023-09-16T21:07:53.733Z,15.18
2023-09-16T21:12:57.097Z,15.19
2023-09-16T21:17:59.642Z,15.21
2023-09-16T21:23:02.145Z,15.27
2023-09-16T21:28:05.132Z,15.30
2023-09-16T21:33:08.926Z,15.34
2023-09-16T21:38:11.509Z,15.35
2023-09-16T21:43:15.192Z,15.29
2023-09-16T21:48:18.064Z,15.26
2023-09-16T21:53:21.039Z,15.25
2023-09-16T21:58:23.630Z,15.32
2023-09-16T22:11:01.652Z,15.46
2023-09-16T22:16:04.242Z,15.47
2023-09-16T22:21:10.006Z,15.47
2023-09-16T22:26:12.502Z,15.44
2023-09-16T22:31:19.044Z,15.38
2023-09-16T22:36:21.669Z,15.27
2023-09-16T22:41:24.337Z,15.28
2023-09-16T22:46:27.400Z,15.25
2023-09-16T22:51:30.036Z,15.16
2023-09-16T22:56:36.075Z,15.05
2023-09-16T23:01:39.154Z,14.93
2023-09-16T23:06:41.728Z,14.83
2023-09-16T23:11:44.252Z,14.69
2023-09-16T23:16:46.886Z,14.49
2023-09-16T23:21:49.689Z,14.31
2023-09-16T23:26:52.204Z,14.17
2023-09-16T23:31:54.741Z,14.11
2023-09-16T23:36:57.364Z,14.13
2023-09-16T23:42:00.126Z,14.18
2023-09-16T23:47:02.745Z,14.26
2023-09-16T23:52:05.766Z,14.32
2023-09-16T23:57:08.982Z,14.41
